Time;durP1;ratioP1;P1;durP2;ratioP2;P2;SDS_P1;SDS_P2;PMS_P1;PMS_P2;Temp;Humidity;BMP_temperature;BMP_pressure;BME280_temperature;BME280_humidity;BME280_pressure;Samples;Min_cycle;Max_cycle;Signal;HPM_P1;HPM_P2
2023/07/16 00:01:06;;;;;;;4.55;2.83;;;21.80;99.90;;;;;;5051491;28;20297;-55
2023/07/16 00:03:32;;;;;;;4.35;3.10;;;21.70;99.90;;;;;;5051482;28;20229;-56
2023/07/16 00:05:59;;;;;;;4.07;2.53;;;21.70;99.90;;;;;;5050906;28;20213;-56
2023/07/16 00:08:26;;;;;;;3.88;2.40;;;21.80;99.90;;;;;;5051214;28;20241;-55
2023/07/16 00:10:54;;;;;;;3.95;1.90;;;21.80;99.90;;;;;;5051615;28;20241;-55
2023/07/16 00:13:21;;;;;;;3.08;1.88;;;21.70;99.90;;;;;;5051247;28;20230;-54
2023/07/16 00:15:48;;;;;;;3.95;1.98;;;21.70;99.90;;;;;;5051273;28;20209;-57
2023/07/16 00:18:14;;;;;;;2.00;1.80;;;21.70;99.90;;;;;;5051133;28;20225;-55
2023/07/16 00:20:41;;;;;;;3.60;2.05;;;21.70;99.90;;;;;;5051667;28;20716;-53
2023/07/16 00:23:08;;;;;;;2.33;2.08;;;21.70;99.90;;;;;;5051413;28;20206;-54
2023/07/16 00:25:35;;;;;;;2.05;1.85;;;21.80;99.90;;;;;;5051320;28;20206;-55
2023/07/16 00:28:03;;;;;;;3.70;2.05;;;21.90;99.90;;;;;;5050979;28;20205;-55
2023/07/16 00:30:30;;;;;;;2.85;2.00;;;21.90;99.90;;;;;;5051231;28;20292;-54
2023/07/16 00:32:56;;;;;;;2.85;2.20;;;21.90;99.90;;;;;;5050956;28;20197;-53
2023/07/16 00:35:23;;;;;;;2.13;1.77;;;22.00;99.90;;;;;;5051078;28;20632;-53
2023/07/16 00:37:50;;;;;;;3.03;1.95;;;21.90;99.90;;;;;;5051185;28;20209;-55
2023/07/16 00:40:17;;;;;;;3.10;1.77;;;21.90;99.90;;;;;;5051074;28;20240;-54
2023/07/16 00:42:43;;;;;;;4.00;1.90;;;21.90;99.90;;;;;;5051430;28;20210;-53
2023/07/16 00:45:14;;;;;;;3.65;1.65;;;21.90;99.90;;;;;;5051328;28;20229;-54
2023/07/16 00:47:42;;;;;;;2.78;1.80;;;22.00;99.90;;;;;;5050936;28;20234;-54
2023/07/16 00:50:10;;;;;;;3.55;1.88;;;21.90;99.90;;;;;;5051305;28;20548;-53
2023/07/16 00:52:38;;;;;;;1.92;1.50;;;21.90;99.90;;;;;;5050823;28;20701;-54
2023/07/16 00:55:06;;;;;;;2.47;1.80;;;22.00;99.90;;;;;;5051179;28;20225;-54
2023/07/16 00:57:34;;;;;;;3.80;1.60;;;22.00;99.90;;;;;;5050842;28;20210;-55
2023/07/16 01:00:01;;;;;;;1.92;1.70;;;22.00;99.90;;;;;;5050899;28;20233;-54
2023/07/16 01:02:29;;;;;;;2.05;1.55;;;22.10;99.90;;;;;;5050707;28;20201;-53
2023/07/16 01:04:56;;;;;;;2.85;2.20;;;22.10;99.90;;;;;;5050947;28;20236;-53
2023/07/16 01:07:26;;;;;;;2.58;1.75;;;22.10;99.90;;;;;;5052235;28;20675;-57
2023/07/16 01:09:55;;;;;;;4.90;1.75;;;22.00;99.90;;;;;;5054743;28;20364;-55
2023/07/16 01:12:23;;;;;;;1.95;1.50;;;22.10;99.90;;;;;;5054726;28;20624;-54
2023/07/16 01:14:51;;;;;;;3.08;1.55;;;22.10;99.90;;;;;;5054413;28;20221;-54
2023/07/16 01:17:18;;;;;;;3.42;1.67;;;22.20;99.90;;;;;;5054418;28;20209;-54
2023/07/16 01:19:46;;;;;;;2.28;1.50;;;22.10;99.90;;;;;;5054433;28;20222;-56
2023/07/16 01:22:32;;;;;;;1.65;1.48;;;22.10;99.90;;;;;;5054832;28;20316;-54
2023/07/16 01:25:22;;;;;;;2.00;1.77;;;22.10;99.90;;;;;;5054335;28;20285;-53
2023/07/16 01:28:04;;;;;;;1.95;1.60;;;22.10;99.90;;;;;;5054521;28;20213;-52
2023/07/16 01:30:33;;;;;;;2.58;1.80;;;22.00;99.90;;;;;;5054627;28;20565;-57
2023/07/16 01:33:01;;;;;;;2.00;1.63;;;22.00;99.90;;;;;;5054164;28;20205;-54
2023/07/16 01:35:28;;;;;;;3.13;1.65;;;22.00;99.90;;;;;;5054255;28;20696;-53
2023/07/16 01:37:55;;;;;;;2.50;1.52;;;22.00;99.90;;;;;;5053969;28;20210;-55
2023/07/16 01:40:22;;;;;;;3.42;1.75;;;22.10;99.90;;;;;;5054294;28;20312;-54
2023/07/16 01:42:49;;;;;;;1.73;1.40;;;22.10;99.90;;;;;;5054368;28;20289;-53
2023/07/16 01:45:15;;;;;;;1.77;1.60;;;22.00;99.90;;;;;;5054415;28;20225;-55
2023/07/16 01:47:54;;;;;;;3.55;1.70;;;22.00;99.90;;;;;;5053771;28;20267;-53
2023/07/16 01:50:21;;;;;;;2.08;1.60;;;22.00;99.90;;;;;;5053822;28;20201;-53
2023/07/16 01:52:48;;;;;;;2.80;1.65;;;22.00;99.90;;;;;;5053853;28;20220;-55
2023/07/16 01:55:14;;;;;;;2.45;1.63;;;22.10;99.90;;;;;;5054006;28;20222;-53
2023/07/16 01:57:41;;;;;;;2.03;1.50;;;22.10;99.90;;;;;;5053436;28;20206;-52
2023/07/16 02:00:09;;;;;;;1.98;1.30;;;22.10;99.90;;;;;;5053556;28;20236;-54
2023/07/16 02:02:35;;;;;;;3.35;1.20;;;22.10;99.90;;;;;;5053543;28;20214;-54
2023/07/16 02:05:04;;;;;;;1.60;1.05;;;22.00;99.90;;;;;;5053521;28;20611;-54
2023/07/16 02:07:31;;;;;;;3.05;0.98;;;22.00;99.90;;;;;;5053152;28;20252;-54
2023/07/16 02:09:58;;;;;;;1.95;1.00;;;22.00;99.90;;;;;;5053683;28;20590;-54
2023/07/16 02:12:24;;;;;;;3.28;1.00;;;22.00;99.90;;;;;;5053412;28;20202;-54
2023/07/16 02:14:51;;;;;;;3.60;1.10;;;21.90;99.90;;;;;;5053162;28;20287;-54
2023/07/16 02:17:18;;;;;;;1.25;1.00;;;21.90;99.90;;;;;;5052568;28;20575;-53
2023/07/16 02:19:44;;;;;;;1.83;1.00;;;21.90;99.90;;;;;;5053349;28;20225;-55
2023/07/16 02:22:12;;;;;;;2.38;1.00;;;21.90;99.90;;;;;;5053185;28;20692;-53
2023/07/16 02:24:39;;;;;;;1.60;1.15;;;21.80;99.90;;;;;;5053382;28;20634;-55
2023/07/16 02:27:06;;;;;;;2.38;1.00;;;21.60;99.90;;;;;;5052838;28;20205;-54
2023/07/16 02:29:33;;;;;;;3.50;1.10;;;21.60;99.90;;;;;;5053168;28;20202;-54
2023/07/16 02:32:00;;;;;;;1.10;0.95;;;21.70;99.90;;;;;;5052912;28;20201;-54
2023/07/16 02:34:27;;;;;;;1.25;1.15;;;21.70;99.90;;;;;;5053296;28;20225;-57
2023/07/16 02:36:53;;;;;;;3.92;1.17;;;21.60;99.90;;;;;;5052746;28;20206;-54
2023/07/16 02:39:21;;;;;;;1.45;1.00;;;21.50;99.90;;;;;;5053018;28;20218;-54
2023/07/16 02:41:48;;;;;;;4.35;1.23;;;21.50;99.90;;;;;;5052946;28;20210;-54
2023/07/16 02:44:15;;;;;;;2.92;1.13;;;21.40;99.90;;;;;;5052800;28;20230;-53
2023/07/16 02:46:44;;;;;;;2.40;1.00;;;21.40;99.90;;;;;;5052649;28;20201;-54
2023/07/16 02:49:10;;;;;;;1.40;1.10;;;21.50;99.90;;;;;;5052993;28;20206;-53
2023/07/16 02:51:37;;;;;;;4.82;1.10;;;21.40;99.90;;;;;;5052790;28;20690;-55
2023/07/16 02:54:04;;;;;;;2.17;1.13;;;21.20;99.90;;;;;;5052672;28;20237;-53
2023/07/16 02:56:32;;;;;;;3.35;1.35;;;21.10;99.90;;;;;;5052422;28;20210;-53
2023/07/16 02:58:58;;;;;;;3.45;0.95;;;21.10;99.90;;;;;;5052494;28;20221;-53
2023/07/16 03:01:25;;;;;;;5.82;1.42;;;21.10;99.90;;;;;;5052810;28;20348;-53
2023/07/16 03:03:52;;;;;;;4.97;1.38;;;21.10;99.90;;;;;;5052654;28;20714;-53
2023/07/16 03:06:18;;;;;;;1.80;1.10;;;21.20;99.90;;;;;;5052437;28;20213;-54
2023/07/16 03:08:46;;;;;;;2.35;1.20;;;21.20;99.90;;;;;;5052397;28;20701;-53
2023/07/16 03:11:12;;;;;;;2.60;1.17;;;21.10;99.90;;;;;;5052424;28;20289;-53
2023/07/16 03:13:40;;;;;;;4.22;1.13;;;21.00;99.90;;;;;;5051994;28;20229;-53
2023/07/16 03:16:07;;;;;;;1.10;1.00;;;20.90;99.90;;;;;;5052475;28;20213;-53
2023/07/16 03:18:34;;;;;;;2.90;1.50;;;20.80;99.90;;;;;;5052547;28;20263;-54
2023/07/16 03:21:00;;;;;;;3.45;0.95;;;20.80;99.90;;;;;;5052192;28;20275;-53
2023/07/16 03:23:27;;;;;;;3.40;1.20;;;20.70;99.90;;;;;;5052259;28;20233;-53
2023/07/16 03:25:54;;;;;;;3.47;1.30;;;20.80;99.90;;;;;;5051848;28;20212;-55
2023/07/16 03:28:20;;;;;;;4.30;2.03;;;20.80;99.90;;;;;;5051880;28;20209;-54
2023/07/16 03:30:50;;;;;;;2.70;1.27;;;20.80;99.90;;;;;;5051562;28;20209;-53
2023/07/16 03:33:17;;;;;;;2.75;1.40;;;20.90;99.90;;;;;;5052174;28;20229;-54
2023/07/16 03:35:44;;;;;;;2.15;1.30;;;20.80;99.90;;;;;;5051595;28;20205;-52
2023/07/16 03:38:11;;;;;;;3.22;1.20;;;20.90;99.90;;;;;;5051816;28;20208;-53
2023/07/16 03:40:38;;;;;;;1.73;1.27;;;20.90;99.90;;;;;;5052468;28;20283;-54
2023/07/16 03:43:05;;;;;;;1.63;1.20;;;21.00;99.90;;;;;;5053983;28;20213;-54
2023/07/16 03:45:32;;;;;;;2.70;1.30;;;21.00;99.90;;;;;;5052443;28;20213;-53
2023/07/16 03:48:00;;;;;;;2.28;1.10;;;21.00;99.90;;;;;;5051387;28;20632;-54
2023/07/16 03:50:27;;;;;;;5.22;1.23;;;21.00;99.90;;;;;;5051738;28;20209;-54
2023/07/16 03:52:53;;;;;;;1.58;1.20;;;21.00;99.90;;;;;;5052641;28;20201;-54
2023/07/16 03:55:21;;;;;;;3.05;1.27;;;21.10;99.90;;;;;;5051536;28;20297;-53
2023/07/16 03:57:48;;;;;;;4.22;1.20;;;21.10;99.90;;;;;;5051600;28;20228;-54
2023/07/16 04:00:15;;;;;;;3.22;1.30;;;21.10;99.90;;;;;;5051509;28;20230;-54
2023/07/16 04:02:41;;;;;;;2.30;1.15;;;21.10;99.90;;;;;;5051889;28;20209;-53
2023/07/16 04:05:10;;;;;;;1.30;1.20;;;21.10;99.90;;;;;;5051929;28;20225;-53
2023/07/16 04:07:37;;;;;;;2.55;1.30;;;21.10;99.90;;;;;;5050985;28;20800;-54
2023/07/16 04:10:04;;;;;;;2.85;1.35;;;21.00;99.90;;;;;;5051471;28;20205;-54
2023/07/16 04:12:31;;;;;;;2.85;1.23;;;21.10;99.90;;;;;;5051775;28;20209;-55
2023/07/16 04:14:59;;;;;;;3.20;1.50;;;21.10;99.90;;;;;;5052142;28;20233;-53
2023/07/16 04:17:26;;;;;;;2.90;1.40;;;21.20;99.90;;;;;;5051741;28;20575;-55
2023/07/16 04:19:53;;;;;;;1.52;1.13;;;21.20;99.90;;;;;;5052288;28;20226;-54
2023/07/16 04:22:21;;;;;;;1.42;1.25;;;21.10;99.90;;;;;;5052649;28;20214;-56
2023/07/16 04:24:48;;;;;;;2.75;1.48;;;21.10;99.90;;;;;;5052426;28;20575;-54
2023/07/16 04:27:14;;;;;;;3.65;2.08;;;21.10;99.90;;;;;;5051395;28;20205;-54
2023/07/16 04:29:41;;;;;;;2.50;1.40;;;21.10;99.90;;;;;;5051473;28;20206;-56
2023/07/16 04:32:08;;;;;;;3.30;1.55;;;21.10;99.90;;;;;;5051275;28;20210;-53
2023/07/16 04:34:35;;;;;;;4.82;1.60;;;21.20;99.90;;;;;;5051081;28;20236;-54
2023/07/16 04:37:01;;;;;;;1.58;1.00;;;21.20;99.90;;;;;;5050758;28;20210;-56
2023/07/16 04:39:29;;;;;;;4.13;1.48;;;21.20;99.90;;;;;;5051448;28;20259;-54
2023/07/16 04:41:56;;;;;;;2.35;1.52;;;21.20;99.90;;;;;;5053990;28;20212;-55
2023/07/16 04:44:23;;;;;;;4.75;1.60;;;21.20;99.90;;;;;;5055238;28;20233;-54
2023/07/16 04:46:49;;;;;;;3.38;1.38;;;21.20;99.90;;;;;;5055087;28;20208;-54
2023/07/16 04:49:16;;;;;;;4.22;2.05;;;21.30;99.90;;;;;;5055028;28;20209;-55
2023/07/16 04:51:43;;;;;;;2.97;2.10;;;21.30;99.90;;;;;;5055435;28;20220;-54
2023/07/16 04:54:10;;;;;;;4.43;2.50;;;21.30;99.90;;;;;;5055229;28;20232;-54
2023/07/16 04:56:38;;;;;;;5.22;3.20;;;21.40;99.90;;;;;;5054961;28;20206;-54
2023/07/16 04:59:04;;;;;;;5.30;2.22;;;21.30;99.90;;;;;;5055229;28;20208;-55
2023/07/16 05:01:31;;;;;;;3.67;2.05;;;21.30;99.90;;;;;;5054859;28;20225;-54
2023/07/16 05:03:58;;;;;;;3.20;1.80;;;21.40;99.90;;;;;;5054986;28;20236;-54
2023/07/16 05:06:24;;;;;;;6.50;2.30;;;21.50;99.90;;;;;;5054645;28;20314;-55
2023/07/16 05:08:51;;;;;;;4.95;1.88;;;21.50;99.90;;;;;;5054743;28;20205;-54
2023/07/16 05:11:18;;;;;;;2.35;1.50;;;21.60;99.90;;;;;;5054788;28;20202;-54
2023/07/16 05:13:46;;;;;;;5.35;1.73;;;21.60;99.90;;;;;;5054605;28;20225;-56
2023/07/16 05:16:12;;;;;;;4.78;2.60;;;21.70;99.90;;;;;;5054316;28;20206;-56
2023/07/16 05:18:39;;;;;;;2.00;1.40;;;21.80;99.90;;;;;;5054255;28;20312;-54
2023/07/16 05:21:06;;;;;;;1.92;1.23;;;21.80;99.90;;;;;;5054499;28;20724;-54
2023/07/16 05:23:32;;;;;;;5.00;1.45;;;21.70;99.90;;;;;;5054536;28;20605;-56
2023/07/16 05:25:59;;;;;;;3.05;1.75;;;21.70;99.90;;;;;;5054332;28;20208;-54
2023/07/16 05:28:26;;;;;;;5.43;1.98;;;21.70;99.90;;;;;;5054493;28;20202;-54
2023/07/16 05:31:00;;;;;;;1.92;1.58;;;21.80;99.90;;;;;;5054220;28;20239;-53
2023/07/16 05:33:27;;;;;;;4.55;1.92;;;21.80;99.90;;;;;;5054326;28;20734;-55
2023/07/16 05:35:54;;;;;;;4.25;2.10;;;22.00;99.90;;;;;;5054410;28;20208;-54
2023/07/16 05:38:20;;;;;;;4.55;2.13;;;22.10;99.90;;;;;;5054371;28;20206;-53
2023/07/16 05:40:47;;;;;;;3.25;2.08;;;22.20;99.90;;;;;;5054041;28;20654;-54
2023/07/16 05:43:14;;;;;;;7.15;2.47;;;22.20;99.90;;;;;;5053951;28;20233;-54
2023/07/16 05:45:41;;;;;;;3.40;2.20;;;22.20;99.90;;;;;;5053759;28;20205;-54
2023/07/16 05:48:09;;;;;;;3.10;1.73;;;22.10;99.90;;;;;;5054271;28;20216;-53
2023/07/16 05:50:36;;;;;;;6.57;1.55;;;22.20;99.90;;;;;;5054165;28;20524;-54
2023/07/16 05:53:02;;;;;;;3.00;1.70;;;22.20;99.90;;;;;;5053279;28;20205;-53
2023/07/16 05:55:29;;;;;;;3.65;2.00;;;22.20;99.90;;;;;;5053763;28;20713;-53
2023/07/16 05:57:56;;;;;;;6.47;2.22;;;22.20;99.90;;;;;;5053597;28;20253;-54
2023/07/16 06:00:23;;;;;;;7.82;1.90;;;22.20;99.90;;;;;;5053592;28;20226;-53
2023/07/16 06:02:50;;;;;;;4.38;1.73;;;22.40;99.90;;;;;;5054286;28;20210;-54
2023/07/16 06:05:18;;;;;;;3.47;1.92;;;22.50;99.90;;;;;;5053721;28;20739;-54
2023/07/16 06:07:45;;;;;;;6.63;3.00;;;22.70;99.90;;;;;;5053420;28;20213;-54
2023/07/16 06:10:12;;;;;;;5.13;1.80;;;23.00;99.90;;;;;;5053684;28;20233;-53
2023/07/16 06:12:38;;;;;;;2.53;1.55;;;23.10;99.90;;;;;;5053504;28;20676;-54
2023/07/16 06:15:06;;;;;;;6.53;2.10;;;23.20;99.90;;;;;;5053251;28;20221;-53
2023/07/16 06:17:32;;;;;;;2.40;1.40;;;23.60;99.90;;;;;;5053556;28;20210;-53
2023/07/16 06:19:59;;;;;;;6.25;1.48;;;24.80;99.90;;;;;;5062279;22;20229;-61
2023/07/16 06:22:27;;;;;;;4.05;1.60;;;26.60;99.90;;;;;;5033201;28;20202;-61
2023/07/16 06:24:54;;;;;;;2.75;1.60;;;28.10;99.90;;;;;;5033352;28;20206;-61
2023/07/16 06:27:21;;;;;;;2.97;1.30;;;28.70;99.90;;;;;;5032778;28;20235;-61
2023/07/16 06:29:47;;;;;;;1.98;1.15;;;28.60;99.90;;;;;;5033061;28;20238;-61
2023/07/16 06:32:14;;;;;;;2.67;1.45;;;28.20;99.90;;;;;;5033188;28;20210;-61
2023/07/16 06:34:41;;;;;;;5.55;1.85;;;27.70;99.90;;;;;;5033107;28;20264;-61
2023/07/16 06:37:08;;;;;;;5.53;1.75;;;27.10;99.90;;;;;;5032791;28;20218;-60
2023/07/16 06:39:36;;;;;;;4.20;1.40;;;26.50;99.90;;;;;;5032740;28;20250;-59
2023/07/16 06:42:03;;;;;;;2.83;1.52;;;26.10;99.90;;;;;;5032341;28;20331;-60
2023/07/16 06:44:30;;;;;;;7.00;1.92;;;25.60;99.90;;;;;;5032939;28;20210;-60
2023/07/16 06:46:57;;;;;;;4.72;2.00;;;25.40;99.90;;;;;;5032334;28;20238;-59
2023/07/16 06:49:24;;;;;;;5.78;2.35;;;25.20;99.90;;;;;;5032560;28;20284;-60
2023/07/16 06:51:50;;;;;;;3.78;1.63;;;25.20;99.90;;;;;;5032485;28;20382;-60
2023/07/16 06:54:17;;;;;;;4.90;1.88;;;25.40;99.90;;;;;;5032342;28;20214;-60
2023/07/16 06:56:45;;;;;;;3.17;1.50;;;25.60;99.90;;;;;;5032623;28;20206;-60
2023/07/16 06:59:12;;;;;;;5.07;1.65;;;25.90;99.90;;;;;;5032662;28;20202;-60
2023/07/16 07:01:38;;;;;;;3.28;1.50;;;26.00;99.90;;;;;;5032128;28;20222;-61
2023/07/16 07:04:05;;;;;;;7.10;1.23;;;26.00;99.90;;;;;;5032633;28;20571;-60
2023/07/16 07:06:32;;;;;;;5.53;1.90;;;26.00;99.90;;;;;;5032138;28;20207;-61
2023/07/16 07:08:59;;;;;;;2.92;1.67;;;26.30;99.90;;;;;;5031920;28;20202;-61
2023/07/16 07:11:26;;;;;;;6.82;1.95;;;27.10;99.90;;;;;;5032034;28;20706;-61
2023/07/16 07:13:55;;;;;;;2.97;1.30;;;27.50;99.90;;;;;;5032261;28;20206;-61
2023/07/16 07:16:21;;;;;;;8.80;1.60;;;27.50;99.90;;;;;;5031947;28;20225;-61
2023/07/16 07:18:48;;;;;;;2.95;1.40;;;27.60;99.90;;;;;;5032067;28;20233;-61
2023/07/16 07:21:15;;;;;;;3.67;1.50;;;27.90;99.90;;;;;;5031695;28;20603;-60
2023/07/16 07:23:41;;;;;;;4.88;1.42;;;28.50;99.90;;;;;;5031746;28;20218;-60
2023/07/16 07:26:08;;;;;;;4.03;1.50;;;30.20;99.60;;;;;;5031956;28;20202;-60
2023/07/16 07:28:35;;;;;;;7.10;1.80;;;32.30;92.60;;;;;;5032169;28;20211;-60
2023/07/16 07:31:03;;;;;;;4.55;1.67;;;33.60;85.90;;;;;;5031933;28;20222;-61
2023/07/16 07:33:29;;;;;;;3.85;1.65;;;34.50;80.50;;;;;;5032128;28;20194;-60
2023/07/16 07:35:57;;;;;;;3.22;1.42;;;35.30;74.20;;;;;;5031588;28;20678;-60
2023/07/16 07:38:23;;;;;;;4.35;1.55;;;35.60;72.00;;;;;;5032336;28;20206;-60
2023/07/16 07:40:50;;;;;;;3.90;1.70;;;34.90;71.50;;;;;;5031760;28;20718;-60
2023/07/16 07:43:17;;;;;;;6.35;1.40;;;33.90;75.10;;;;;;5031823;28;20674;-60
2023/07/16 07:45:44;;;;;;;2.15;1.33;;;33.10;74.30;;;;;;5031504;28;20206;-60
2023/07/16 07:48:12;;;;;;;4.60;1.50;;;31.90;79.50;;;;;;5031984;28;20302;-60
2023/07/16 07:50:39;;;;;;;4.47;1.45;;;30.90;83.40;;;;;;5031191;28;20222;-60
2023/07/16 07:53:06;;;;;;;5.22;1.52;;;30.70;86.30;;;;;;5031586;28;20237;-60
2023/07/16 07:55:34;;;;;;;3.60;1.30;;;31.10;81.20;;;;;;5031640;28;20276;-60
2023/07/16 07:58:01;;;;;;;4.10;1.88;;;31.60;79.60;;;;;;5031327;28;20233;-60
2023/07/16 08:00:27;;;;;;;4.10;1.63;;;32.10;78.20;;;;;;5031212;28;20706;-60
2023/07/16 08:02:54;;;;;;;3.55;1.60;;;33.10;75.70;;;;;;5031291;28;20214;-60
2023/07/16 08:05:22;;;;;;;6.32;1.83;;;34.80;69.10;;;;;;5031158;28;20206;-60
2023/07/16 08:07:49;;;;;;;3.47;1.33;;;35.50;65.60;;;;;;5031149;28;20210;-60
2023/07/16 08:10:16;;;;;;;2.65;1.30;;;35.20;64.40;;;;;;5030952;28;20230;-60
2023/07/16 08:12:42;;;;;;;4.28;1.50;;;35.20;64.40;;;;;;5031288;28;20217;-62
2023/07/16 08:15:13;;;;;;;2.70;1.40;;;34.70;65.00;;;;;;5030713;28;20677;-60
2023/07/16 08:17:40;;;;;;;4.75;1.35;;;34.30;64.80;;;;;;5030821;28;20254;-60
2023/07/16 08:20:08;;;;;;;3.75;1.60;;;33.70;66.50;;;;;;5030654;28;20234;-60
2023/07/16 08:22:36;;;;;;;13.25;10.40;;;33.40;67.50;;;;;;5031164;28;20233;-60
2023/07/16 08:25:04;;;;;;;4.60;1.80;;;33.00;68.40;;;;;;5031420;28;20206;-60
2023/07/16 08:27:31;;;;;;;2.55;1.20;;;32.90;69.80;;;;;;5030862;28;20297;-60
2023/07/16 08:29:58;;;;;;;4.88;1.45;;;34.20;66.30;;;;;;5030729;28;20226;-60
2023/07/16 08:32:24;;;;;;;8.07;1.58;;;35.50;61.80;;;;;;5030662;28;20576;-60
2023/07/16 08:34:51;;;;;;;2.88;1.30;;;36.10;59.90;;;;;;5030925;28;20210;-60
2023/07/16 08:37:18;;;;;;;7.43;4.78;;;37.30;58.40;;;;;;5030309;28;20638;-60
2023/07/16 08:39:46;;;;;;;4.60;1.42;;;38.60;56.30;;;;;;5030849;28;20230;-60
2023/07/16 08:42:13;;;;;;;4.05;1.73;;;38.90;54.10;;;;;;5030832;28;20617;-60
2023/07/16 08:44:40;;;;;;;1.92;0.98;;;37.60;54.40;;;;;;5030736;28;20210;-59
2023/07/16 08:47:07;;;;;;;4.88;1.58;;;36.80;55.60;;;;;;5030499;28;20682;-60
2023/07/16 08:49:35;;;;;;;3.75;1.30;;;36.00;56.60;;;;;;5030727;28;20264;-60
2023/07/16 08:52:02;;;;;;;3.10;1.58;;;35.70;57.70;;;;;;5030596;28;20210;-59
2023/07/16 08:54:29;;;;;;;3.78;1.48;;;35.40;57.70;;;;;;5030856;28;20218;-60
2023/07/16 08:56:58;;;;;;;3.33;1.33;;;35.10;58.50;;;;;;5030576;28;20307;-60
2023/07/16 08:59:27;;;;;;;2.75;1.45;;;34.80;58.80;;;;;;5030491;28;20218;-60
2023/07/16 09:01:54;;;;;;;2.10;1.40;;;34.20;58.60;;;;;;5030609;28;20317;-63
2023/07/16 09:04:20;;;;;;;3.55;1.40;;;33.60;60.40;;;;;;5027574;28;20203;-60
2023/07/16 09:06:47;;;;;;;2.53;1.48;;;33.10;60.10;;;;;;5030408;28;20218;-61
2023/07/16 09:09:21;;;;;;;4.50;1.40;;;32.70;60.80;;;;;;5030471;28;20682;-61
2023/07/16 09:11:48;;;;;;;1.35;1.13;;;32.10;61.90;;;;;;5030216;28;20202;-60
2023/07/16 09:14:18;;;;;;;2.00;1.30;;;31.50;63.60;;;;;;5030552;28;20230;-60
2023/07/16 09:16:48;;;;;;;3.65;1.90;;;31.00;65.20;;;;;;5030610;28;20260;-60
2023/07/16 09:19:18;;;;;;;2.40;1.55;;;30.60;65.80;;;;;;5030912;28;20207;-63
2023/07/16 09:21:47;;;;;;;2.72;1.70;;;30.20;67.30;;;;;;5030273;28;20226;-61
2023/07/16 09:24:13;;;;;;;4.82;1.85;;;29.90;68.00;;;;;;5030156;28;20202;-61
2023/07/16 09:26:48;;;;;;;3.90;2.30;;;29.70;68.40;;;;;;5030333;28;20704;-61
2023/07/16 09:29:15;;;;;;;2.78;1.50;;;29.40;69.80;;;;;;5033624;28;20206;-61
2023/07/16 09:31:54;;;;;;;3.58;1.65;;;29.10;69.80;;;;;;5033937;28;20639;-62
2023/07/16 09:34:20;;;;;;;2.65;1.45;;;29.00;69.40;;;;;;5034085;28;20241;-63
2023/07/16 09:36:48;;;;;;;2.90;1.58;;;29.00;70.80;;;;;;5033217;28;20210;-60
2023/07/16 09:39:17;;;;;;;2.45;1.40;;;29.10;69.80;;;;;;5033993;28;20257;-63
2023/07/16 09:41:44;;;;;;;3.55;1.63;;;29.30;69.30;;;;;;5033760;28;20222;-62
2023/07/16 09:44:12;;;;;;;2.22;1.40;;;29.50;69.20;;;;;;5034180;28;20216;-64
2023/07/16 09:46:39;;;;;;;11.95;8.55;;;29.80;68.40;;;;;;5034425;28;20206;-63
2023/07/16 09:49:07;;;;;;;3.00;1.50;;;30.10;68.70;;;;;;5033901;28;20206;-62
2023/07/16 09:51:36;;;;;;;2.83;1.48;;;30.30;66.70;;;;;;5033516;28;20206;-61
2023/07/16 09:54:04;;;;;;;2.90;1.45;;;30.30;66.60;;;;;;5033692;28;20206;-63
2023/07/16 09:56:36;;;;;;;4.28;1.70;;;30.20;65.50;;;;;;5033497;28;20206;-60
2023/07/16 09:59:06;;;;;;;4.53;1.80;;;30.00;69.60;;;;;;5033845;28;20667;-64
2023/07/16 10:01:35;;;;;;;8.95;3.28;;;29.90;70.20;;;;;;5033343;28;20576;-66
2023/07/16 10:04:16;;;;;;;2.47;1.23;;;29.40;71.70;;;;;;5033414;28;20268;-64
2023/07/16 10:06:53;;;;;;;3.15;1.35;;;29.00;73.00;;;;;;5033630;28;20608;-64
2023/07/16 10:09:36;;;;;;;4.20;1.90;;;28.90;74.00;;;;;;5033984;28;20202;-61
2023/07/16 10:12:14;;;;;;;2.67;1.45;;;28.80;74.50;;;;;;5035091;28;20214;-64
2023/07/16 10:14:42;;;;;;;2.67;1.45;;;29.10;75.00;;;;;;5034077;28;20268;-63
2023/07/16 10:17:13;;;;;;;2.55;1.45;;;29.40;73.30;;;;;;5033310;28;20233;-63
2023/07/16 10:19:52;;;;;;;4.07;1.52;;;29.60;72.30;;;;;;5033677;28;20260;-61
2023/07/16 10:22:20;;;;;;;3.15;1.65;;;29.40;72.40;;;;;;5034285;28;20225;-62
2023/07/16 10:24:53;;;;;;;3.95;1.52;;;29.40;73.40;;;;;;5029149;28;20229;-62
2023/07/16 10:27:28;;;;;;;3.67;1.60;;;29.40;73.30;;;;;;5031667;28;20744;-64
2023/07/16 10:29:55;;;;;;;2.95;1.50;;;29.50;72.20;;;;;;5033152;28;20264;-65
2023/07/16 10:32:22;;;;;;;3.08;1.55;;;29.60;72.20;;;;;;5033395;28;20226;-65
2023/07/16 10:34:50;;;;;;;2.72;1.50;;;29.50;72.00;;;;;;5033159;28;20206;-63
2023/07/16 10:37:17;;;;;;;2.42;1.30;;;29.20;73.30;;;;;;5032277;28;20202;-63
2023/07/16 10:39:48;;;;;;;2.33;1.30;;;29.10;72.40;;;;;;5032284;28;21517;-62
2023/07/16 10:42:16;;;;;;;3.97;1.67;;;28.90;73.90;;;;;;5032772;28;20264;-63
2023/07/16 10:44:43;;;;;;;3.38;1.50;;;28.50;73.60;;;;;;5032792;28;20694;-66
2023/07/16 10:47:10;;;;;;;6.25;2.15;;;28.20;75.60;;;;;;5032890;28;20553;-62
2023/07/16 10:49:36;;;;;;;4.72;1.85;;;27.90;77.60;;;;;;5032581;28;20653;-60
2023/07/16 10:52:05;;;;;;;4.88;2.20;;;27.90;76.90;;;;;;5032707;28;20202;-60
2023/07/16 10:54:32;;;;;;;4.20;1.77;;;28.10;76.90;;;;;;5032638;28;20213;-61
2023/07/16 10:56:59;;;;;;;6.60;1.95;;;28.20;77.00;;;;;;5032655;28;20210;-60
2023/07/16 10:59:25;;;;;;;3.80;1.83;;;28.20;76.90;;;;;;5032423;28;20276;-60
2023/07/16 11:01:52;;;;;;;1.98;1.45;;;28.30;75.70;;;;;;5032403;28;20222;-61
2023/07/16 11:04:19;;;;;;;8.30;1.90;;;28.30;74.70;;;;;;5032594;28;20218;-58
2023/07/16 11:06:45;;;;;;;3.15;1.65;;;28.20;76.20;;;;;;5032157;28;20213;-59
2023/07/16 11:09:14;;;;;;;3.92;1.98;;;28.20;76.60;;;;;;5032428;28;20206;-61
2023/07/16 11:11:41;;;;;;;4.90;1.30;;;28.40;74.70;;;;;;5032513;28;20206;-60
2023/07/16 11:14:09;;;;;;;5.00;2.10;;;28.50;74.10;;;;;;5032197;28;20248;-59
2023/07/16 11:16:36;;;;;;;2.63;1.33;;;28.60;75.00;;;;;;5031943;28;20706;-59
2023/07/16 11:19:05;;;;;;;3.90;1.35;;;28.60;73.40;;;;;;5032431;28;20297;-61
2023/07/16 11:21:32;;;;;;;3.72;1.40;;;28.60;72.70;;;;;;5033413;28;20217;-60
2023/07/16 11:24:09;;;;;;;5.97;3.22;;;28.40;74.20;;;;;;5032598;28;20221;-60
2023/07/16 11:26:37;;;;;;;3.17;1.48;;;28.40;75.10;;;;;;5032569;28;20658;-60
2023/07/16 11:29:14;;;;;;;2.33;1.73;;;28.60;73.90;;;;;;5032854;28;20213;-61
2023/07/16 11:31:41;;;;;;;3.47;1.90;;;29.00;73.10;;;;;;5032921;28;20735;-59
2023/07/16 11:34:08;;;;;;;3.55;1.58;;;29.00;72.70;;;;;;5032696;28;20241;-60
2023/07/16 11:36:35;;;;;;;2.08;1.40;;;29.10;71.90;;;;;;5032093;28;20237;-60
2023/07/16 11:39:03;;;;;;;3.38;1.63;;;29.20;72.00;;;;;;5032316;28;20213;-60
2023/07/16 11:41:30;;;;;;;3.38;1.55;;;28.90;73.30;;;;;;5032236;28;20257;-60
2023/07/16 11:44:01;;;;;;;3.28;1.88;;;28.50;74.40;;;;;;5032358;28;20202;-59
2023/07/16 11:46:32;;;;;;;3.22;1.70;;;28.30;75.40;;;;;;5031677;28;20241;-60
2023/07/16 11:48:58;;;;;;;2.70;1.55;;;28.30;75.90;;;;;;5031964;28;20408;-60
2023/07/16 11:51:25;;;;;;;3.00;1.60;;;28.60;75.30;;;;;;5031095;28;20226;-60
2023/07/16 11:53:52;;;;;;;3.17;1.40;;;29.10;72.80;;;;;;5032103;28;20210;-60
2023/07/16 11:56:19;;;;;;;3.22;1.63;;;29.60;71.50;;;;;;5031045;28;20275;-61
2023/07/16 11:58:45;;;;;;;3.42;2.25;;;30.10;69.60;;;;;;5031507;28;20237;-61
2023/07/16 12:01:14;;;;;;;7.10;4.03;;;30.20;69.80;;;;;;5031521;28;20638;-61
2023/07/16 12:03:41;;;;;;;3.00;1.55;;;30.20;70.10;;;;;;5031580;28;20226;-61
2023/07/16 12:06:08;;;;;;;3.13;1.58;;;30.20;69.30;;;;;;5031756;28;20206;-63
2023/07/16 12:08:35;;;;;;;3.65;1.65;;;30.00;69.40;;;;;;5031894;28;20217;-60
2023/07/16 12:11:03;;;;;;;3.38;1.35;;;29.60;69.90;;;;;;5031418;28;20226;-60
2023/07/16 12:13:30;;;;;;;3.17;1.55;;;29.20;71.40;;;;;;5032045;28;20693;-59
2023/07/16 12:15:56;;;;;;;3.70;1.80;;;29.00;71.70;;;;;;5031662;28;20210;-59
2023/07/16 12:18:24;;;;;;;2.28;1.45;;;29.20;71.90;;;;;;5031809;28;20206;-61
2023/07/16 12:20:51;;;;;;;3.75;1.60;;;29.20;71.80;;;;;;5031722;28;20721;-61
2023/07/16 12:23:18;;;;;;;4.72;1.60;;;29.40;71.10;;;;;;5031448;28;20233;-60
2023/07/16 12:25:45;;;;;;;1.88;1.35;;;29.40;71.90;;;;;;5031345;28;20245;-61
2023/07/16 12:28:11;;;;;;;4.45;1.48;;;29.60;69.80;;;;;;5031844;28;20202;-61
2023/07/16 12:30:38;;;;;;;2.28;1.40;;;29.60;70.80;;;;;;5031557;28;20230;-61
2023/07/16 12:33:05;;;;;;;2.78;1.60;;;29.50;69.00;;;;;;5031526;28;20395;-62
2023/07/16 12:35:33;;;;;;;2.53;1.90;;;29.60;69.20;;;;;;5031403;28;20206;-61
2023/07/16 12:38:00;;;;;;;2.45;1.60;;;29.70;68.60;;;;;;5031354;28;20206;-60
2023/07/16 12:40:29;;;;;;;4.07;1.70;;;29.80;67.70;;;;;;5031391;28;20236;-62
2023/07/16 12:42:55;;;;;;;4.72;1.60;;;29.70;67.70;;;;;;5031413;28;20230;-61
2023/07/16 12:45:22;;;;;;;4.13;1.50;;;29.80;68.60;;;;;;5031482;28;20213;-61
2023/07/16 12:47:49;;;;;;;2.80;1.50;;;29.90;67.60;;;;;;5031095;28;20214;-61